Time;durP1;ratioP1;P1;durP2;ratioP2;P2;SDS_P1;SDS_P2;PMS_P1;PMS_P2;Temp;Humidity;BMP_temperature;BMP_pressure;BME280_temperature;BME280_humidity;BME280_pressure;Samples;Min_cycle;Max_cycle;Signal;HPM_P1;HPM_P2
2023/10/24 00:02:09;;;;;;;;;;;18.40;58.50;;;;;;4995239;28;87394;-44
2023/10/24 00:04:34;;;;;;;;;;;18.40;58.50;;;;;;4992202;28;87380;-44
2023/10/24 00:07:00;;;;;;;;;;;18.40;58.50;;;;;;4995024;28;87163;-46
2023/10/24 00:09:25;;;;;;;;;;;18.40;58.40;;;;;;4992977;28;87378;-45
2023/10/24 00:11:51;;;;;;;;;;;18.40;58.50;;;;;;4995605;28;90222;-44
2023/10/24 00:14:16;;;;;;;;;;;18.40;58.40;;;;;;4993750;28;88360;-44
2023/10/24 00:16:42;;;;;;;;;;;18.40;58.40;;;;;;4992639;28;87788;-44
2023/10/24 00:19:07;;;;;;;;;;;18.40;58.40;;;;;;4994638;28;87163;-46
2023/10/24 00:21:33;;;;;;;;;;;18.40;58.40;;;;;;4991739;28;87629;-47
2023/10/24 00:23:58;;;;;;;;;;;18.30;58.40;;;;;;4991354;28;88049;-44
2023/10/24 00:26:24;;;;;;;;;;;18.30;58.30;;;;;;4994712;28;86991;-45
2023/10/24 00:28:49;;;;;;;;;;;18.30;58.30;;;;;;4993355;28;86682;-44
2023/10/24 00:31:15;;;;;;;;;;;18.30;58.30;;;;;;4993306;28;87155;-44
2023/10/24 00:33:41;;;;;;;;;;;18.30;58.20;;;;;;4996695;28;87484;-44
2023/10/24 00:36:06;;;;;;;;;;;18.30;58.30;;;;;;4991068;28;90227;-43
2023/10/24 00:38:33;;;;;;;;;;;18.30;58.20;;;;;;4994730;28;87185;-44
2023/10/24 00:40:59;;;;;;;;;;;18.30;58.30;;;;;;4991538;28;87766;-43
2023/10/24 00:43:24;;;;;;;;;;;18.30;58.30;;;;;;4993968;28;87104;-44
2023/10/24 00:45:50;;;;;;;;;;;18.20;58.30;;;;;;4992475;28;87127;-43
2023/10/24 00:48:15;;;;;;;;;;;18.20;58.20;;;;;;4993441;28;87381;-44
2023/10/24 00:50:41;;;;;;;;;;;18.20;58.20;;;;;;4992402;28;87678;-43
2023/10/24 00:53:06;;;;;;;;;;;18.20;58.10;;;;;;4992703;28;86140;-44
2023/10/24 00:55:32;;;;;;;;;;;18.20;58.20;;;;;;4996984;28;87099;-44
2023/10/24 00:58:14;;;;;;;;;;;18.20;58.20;;;;;;4960918;28;86964;-45
2023/10/24 01:00:41;;;;;;;;;;;18.20;58.20;;;;;;4991778;28;88057;-44
2023/10/24 01:03:06;;;;;;;;;;;18.10;58.10;;;;;;4994084;28;87973;-45
2023/10/24 01:05:32;;;;;;;;;;;18.10;58.20;;;;;;4991101;28;86985;-44
2023/10/24 01:07:58;;;;;;;;;;;18.10;58.20;;;;;;4994248;28;87080;-43
2023/10/24 01:10:23;;;;;;;;;;;18.10;58.10;;;;;;4991908;28;88109;-43
2023/10/24 01:12:49;;;;;;;;;;;18.10;58.10;;;;;;4992110;28;87104;-44
2023/10/24 01:15:15;;;;;;;;;;;18.00;58.10;;;;;;4993252;28;87661;-43
2023/10/24 01:17:47;;;;;;;;;;;18.10;58.10;;;;;;4994882;28;87449;-44
2023/10/24 01:20:12;;;;;;;;;;;18.00;58.00;;;;;;4991171;28;87274;-44
2023/10/24 01:22:38;;;;;;;;;;;18.00;58.00;;;;;;4993329;28;88069;-44
2023/10/24 01:25:10;;;;;;;;;;;18.00;58.10;;;;;;4991466;28;88064;-45
2023/10/24 01:27:37;;;;;;;;;;;18.00;58.00;;;;;;4991753;28;88438;-46
2023/10/24 01:30:02;;;;;;;;;;;18.00;58.00;;;;;;4990222;28;87963;-44
2023/10/24 01:32:31;;;;;;;;;;;17.90;58.00;;;;;;4994271;28;87102;-43
2023/10/24 01:34:56;;;;;;;;;;;17.90;58.00;;;;;;4991764;28;87385;-46
2023/10/24 01:37:22;;;;;;;;;;;17.90;58.00;;;;;;4995277;28;87292;-45
2023/10/24 01:39:47;;;;;;;;;;;17.90;58.00;;;;;;4992618;28;87043;-44
2023/10/24 01:42:13;;;;;;;;;;;17.90;58.00;;;;;;4991988;28;87294;-44
2023/10/24 01:44:38;;;;;;;;;;;17.90;58.00;;;;;;4993678;28;87004;-44
2023/10/24 01:47:04;;;;;;;;;;;17.90;58.00;;;;;;4990794;28;87162;-44
2023/10/24 01:49:29;;;;;;;;;;;17.80;58.00;;;;;;4989487;28;89190;-44
2023/10/24 01:51:55;;;;;;;;;;;17.80;58.00;;;;;;4993051;28;87182;-43
2023/10/24 01:54:20;;;;;;;;;;;17.80;58.10;;;;;;4991543;28;87039;-43
2023/10/24 01:56:46;;;;;;;;;;;17.80;58.00;;;;;;4992125;28;88064;-44
2023/10/24 01:59:11;;;;;;;;;;;17.80;58.00;;;;;;4995678;28;87166;-44
2023/10/24 02:01:38;;;;;;;;;;;17.80;57.90;;;;;;4990968;28;88103;-43
2023/10/24 02:04:03;;;;;;;;;;;17.80;57.90;;;;;;4993635;28;87482;-44
2023/10/24 02:06:29;;;;;;;;;;;17.80;57.90;;;;;;4990937;28;87258;-44
2023/10/24 02:08:54;;;;;;;;;;;17.70;57.90;;;;;;4993091;28;88105;-45
2023/10/24 02:11:20;;;;;;;;;;;17.70;57.90;;;;;;4991088;28;87113;-44
2023/10/24 02:13:45;;;;;;;;;;;17.70;57.90;;;;;;4991786;28;88084;-44
2023/10/24 02:16:11;;;;;;;;;;;17.70;58.00;;;;;;4991826;28;87298;-44
2023/10/24 02:18:36;;;;;;;;;;;17.70;57.90;;;;;;4991134;28;87131;-47
2023/10/24 02:21:06;;;;;;;;;;;17.70;57.90;;;;;;4995946;28;87433;-44
2023/10/24 02:23:32;;;;;;;;;;;17.70;57.90;;;;;;4990401;28;87268;-43
2023/10/24 02:25:57;;;;;;;;;;;17.60;57.90;;;;;;4995567;28;87455;-43
2023/10/24 02:28:23;;;;;;;;;;;17.60;57.90;;;;;;4994703;28;87944;-44
2023/10/24 02:30:48;;;;;;;;;;;17.60;57.90;;;;;;4995816;28;86589;-44
2023/10/24 02:33:14;;;;;;;;;;;17.50;57.90;;;;;;4996009;28;87081;-45
2023/10/24 02:35:39;;;;;;;;;;;17.60;58.00;;;;;;4993897;28;88041;-44
2023/10/24 02:38:06;;;;;;;;;;;17.60;58.00;;;;;;4996201;28;88132;-44
2023/10/24 02:40:31;;;;;;;;;;;17.50;57.90;;;;;;4993356;28;89758;-44
2023/10/24 02:42:57;;;;;;;;;;;17.50;57.80;;;;;;4998936;28;88253;-45
2023/10/24 02:45:23;;;;;;;;;;;17.50;57.90;;;;;;4994680;28;87456;-43
2023/10/24 02:47:49;;;;;;;;;;;17.50;57.90;;;;;;4994758;28;87589;-44
2023/10/24 02:50:14;;;;;;;;;;;17.50;57.90;;;;;;4995728;28;87240;-44
2023/10/24 02:52:40;;;;;;;;;;;17.50;57.90;;;;;;4993681;28;87210;-44
2023/10/24 02:55:06;;;;;;;;;;;17.40;57.90;;;;;;4996608;28;88558;-43
2023/10/24 02:57:32;;;;;;;;;;;17.40;57.90;;;;;;4992948;28;87005;-44
2023/10/24 02:59:57;;;;;;;;;;;17.40;57.80;;;;;;4996236;28;87317;-43
2023/10/24 03:02:23;;;;;;;;;;;17.40;57.90;;;;;;4993065;28;90317;-44
2023/10/24 03:04:48;;;;;;;;;;;17.40;57.90;;;;;;4997831;28;87627;-44
2023/10/24 03:07:14;;;;;;;;;;;17.30;58.00;;;;;;4994976;28;88684;-43
2023/10/24 03:09:39;;;;;;;;;;;17.30;57.90;;;;;;4993894;28;87254;-44
2023/10/24 03:12:09;;;;;;;;;;;17.30;57.90;;;;;;4996042;28;87516;-44
2023/10/24 03:14:35;;;;;;;;;;;17.30;57.90;;;;;;4992820;28;89442;-44
2023/10/24 03:17:00;;;;;;;;;;;17.30;57.90;;;;;;4995618;28;87098;-43
2023/10/24 03:19:27;;;;;;;;;;;17.30;57.90;;;;;;4994817;28;87484;-42
2023/10/24 03:21:53;;;;;;;;;;;17.30;57.90;;;;;;4993473;28;88580;-42
2023/10/24 03:24:18;;;;;;;;;;;17.30;57.90;;;;;;4995536;28;87096;-44
2023/10/24 03:26:44;;;;;;;;;;;17.20;57.80;;;;;;4994800;28;87967;-44
2023/10/24 03:29:09;;;;;;;;;;;17.20;57.90;;;;;;4996145;28;87274;-44
2023/10/24 03:31:35;;;;;;;;;;;17.20;57.80;;;;;;4992943;28;87475;-44
2023/10/24 03:34:01;;;;;;;;;;;17.20;57.80;;;;;;4994815;28;88212;-44
2023/10/24 03:36:26;;;;;;;;;;;17.20;57.80;;;;;;4993576;28;87180;-44
2023/10/24 03:38:52;;;;;;;;;;;17.20;57.80;;;;;;4993799;28;88753;-44
2023/10/24 03:41:18;;;;;;;;;;;17.20;57.80;;;;;;4994643;28;87297;-45
2023/10/24 03:43:51;;;;;;;;;;;17.20;57.80;;;;;;4993310;28;86465;-45
2023/10/24 03:46:17;;;;;;;;;;;17.10;57.90;;;;;;4996282;28;87098;-47
2023/10/24 03:48:42;;;;;;;;;;;17.10;57.70;;;;;;4995940;28;87155;-44
2023/10/24 03:51:08;;;;;;;;;;;17.10;57.70;;;;;;4993090;28;88918;-45
2023/10/24 03:53:33;;;;;;;;;;;17.10;57.70;;;;;;4992940;28;89487;-44
2023/10/24 03:55:59;;;;;;;;;;;17.10;57.70;;;;;;4995074;28;87058;-43
2023/10/24 03:58:25;;;;;;;;;;;17.10;57.70;;;;;;4992038;28;87884;-44
2023/10/24 04:00:51;;;;;;;;;;;17.10;57.70;;;;;;4991986;28;88115;-44
2023/10/24 04:03:16;;;;;;;;;;;17.00;57.70;;;;;;4994686;28;87139;-45
2023/10/24 04:05:42;;;;;;;;;;;17.00;57.80;;;;;;4993388;28;87001;-44
2023/10/24 04:08:08;;;;;;;;;;;17.00;57.70;;;;;;4997038;28;87449;-44
2023/10/24 04:10:37;;;;;;;;;;;17.00;57.70;;;;;;4994155;28;88098;-43
2023/10/24 04:13:03;;;;;;;;;;;17.00;57.70;;;;;;4991405;28;89258;-45
2023/10/24 04:15:29;;;;;;;;;;;17.00;57.70;;;;;;4994656;28;88060;-44
2023/10/24 04:17:54;;;;;;;;;;;17.00;57.70;;;;;;4992360;28;88277;-44
2023/10/24 04:20:20;;;;;;;;;;;16.90;57.70;;;;;;4993905;28;88091;-44
2023/10/24 04:22:48;;;;;;;;;;;16.90;57.70;;;;;;4993083;28;87151;-44
2023/10/24 04:25:14;;;;;;;;;;;16.90;57.70;;;;;;4992675;28;87647;-44
2023/10/24 04:27:39;;;;;;;;;;;16.90;57.80;;;;;;4994483;28;87931;-44
2023/10/24 04:30:06;;;;;;;;;;;16.90;57.60;;;;;;4994608;28;87286;-46
2023/10/24 04:32:31;;;;;;;;;;;16.90;57.70;;;;;;4995670;28;87413;-45
2023/10/24 04:34:57;;;;;;;;;;;16.90;57.60;;;;;;4994489;28;86994;-44
2023/10/24 04:37:22;;;;;;;;;;;16.90;57.60;;;;;;4993106;28;87362;-44
2023/10/24 04:39:48;;;;;;;;;;;16.90;57.60;;;;;;4992160;28;88094;-44
2023/10/24 04:42:14;;;;;;;;;;;16.80;57.60;;;;;;4993657;28;87175;-45
2023/10/24 04:44:39;;;;;;;;;;;16.80;57.60;;;;;;4992148;28;87489;-45
2023/10/24 04:47:05;;;;;;;;;;;16.80;57.70;;;;;;4993770;28;88177;-44
2023/10/24 04:49:30;;;;;;;;;;;16.80;57.60;;;;;;4991306;28;87102;-45
2023/10/24 04:51:56;;;;;;;;;;;16.80;57.60;;;;;;4996053;28;88670;-44
2023/10/24 04:54:21;;;;;;;;;;;16.80;57.60;;;;;;4992440;28;87107;-45
2023/10/24 04:56:47;;;;;;;;;;;16.80;57.50;;;;;;4993653;28;87585;-44
2023/10/24 04:59:13;;;;;;;;;;;16.70;57.50;;;;;;4993040;28;88209;-45
2023/10/24 05:01:39;;;;;;;;;;;16.70;57.40;;;;;;4991591;28;87133;-44
2023/10/24 05:04:07;;;;;;;;;;;16.70;57.40;;;;;;4993788;28;88979;-44
2023/10/24 05:06:33;;;;;;;;;;;16.70;57.50;;;;;;4991153;28;88263;-44
2023/10/24 05:08:59;;;;;;;;;;;16.70;57.50;;;;;;4993488;28;87207;-43
2023/10/24 05:11:25;;;;;;;;;;;16.70;57.40;;;;;;4992485;28;87465;-44
2023/10/24 05:13:51;;;;;;;;;;;16.70;57.50;;;;;;4994398;28;87077;-43
2023/10/24 05:16:16;;;;;;;;;;;16.70;57.50;;;;;;4993433;28;87646;-43
2023/10/24 05:18:42;;;;;;;;;;;16.70;57.50;;;;;;4991688;28;88327;-45
2023/10/24 05:21:07;;;;;;;;;;;16.70;57.50;;;;;;4991147;28;86580;-43
2023/10/24 05:23:32;;;;;;;;;;;16.70;57.40;;;;;;4990316;28;87005;-43
2023/10/24 05:25:59;;;;;;;;;;;16.60;57.50;;;;;;4992604;28;87227;-43
2023/10/24 05:28:25;;;;;;;;;;;16.60;57.40;;;;;;4993128;28;88180;-44
2023/10/24 05:30:50;;;;;;;;;;;16.60;57.30;;;;;;4986798;28;88426;-46
2023/10/24 05:33:16;;;;;;;;;;;16.60;57.40;;;;;;4989961;28;89557;-44
2023/10/24 05:35:48;;;;;;;;;;;16.60;57.30;;;;;;4996602;28;87050;-44
2023/10/24 05:38:13;;;;;;;;;;;16.60;57.30;;;;;;4988934;28;88002;-43
2023/10/24 05:40:39;;;;;;;;;;;16.60;57.30;;;;;;4986215;28;87148;-45
2023/10/24 05:43:06;;;;;;;;;;;16.60;57.40;;;;;;4991673;28;87422;-45
2023/10/24 05:45:32;;;;;;;;;;;16.60;57.40;;;;;;4990211;28;89038;-44
2023/10/24 05:47:57;;;;;;;;;;;16.50;57.40;;;;;;4989789;28;87267;-43
2023/10/24 05:50:24;;;;;;;;;;;16.50;57.30;;;;;;4989188;28;87564;-46
2023/10/24 05:52:49;;;;;;;;;;;16.50;57.30;;;;;;4989502;28;92063;-44
2023/10/24 05:55:15;;;;;;;;;;;16.50;57.30;;;;;;4990959;28;87279;-46
2023/10/24 05:57:41;;;;;;;;;;;16.50;57.30;;;;;;4990284;28;88037;-43
2023/10/24 06:00:07;;;;;;;;;;;16.50;57.20;;;;;;4996094;28;89219;-43
2023/10/24 06:02:32;;;;;;;;;;;16.50;57.20;;;;;;4998326;28;87458;-44
2023/10/24 06:04:58;;;;;;;;;;;16.50;57.30;;;;;;4996662;28;87983;-43
2023/10/24 06:07:23;;;;;;;;;;;16.50;57.20;;;;;;4992487;28;89013;-46
2023/10/24 06:09:49;;;;;;;;;;;16.50;57.30;;;;;;4997047;28;86660;-43
2023/10/24 06:12:14;;;;;;;;;;;16.50;57.20;;;;;;4997894;28;89457;-43
2023/10/24 06:14:40;;;;;;;;;;;16.50;57.20;;;;;;4998235;28;89412;-44
2023/10/24 06:17:05;;;;;;;;;;;16.50;57.20;;;;;;4997402;28;88679;-44
2023/10/24 06:19:33;;;;;;;;;;;16.50;57.20;;;;;;5001256;28;87183;-43
2023/10/24 06:21:58;;;;;;;;;;;16.50;57.20;;;;;;4992032;28;87715;-43
2023/10/24 06:24:24;;;;;;;;;;;16.50;57.30;;;;;;4994492;28;88633;-43
2023/10/24 06:26:49;;;;;;;;;;;16.50;57.30;;;;;;4995657;28;87654;-43
2023/10/24 06:29:15;;;;;;;;;;;16.40;57.30;;;;;;4997549;28;87575;-45
2023/10/24 06:31:40;;;;;;;;;;;16.40;57.20;;;;;;4994417;28;88856;-45
2023/10/24 06:34:07;;;;;;;;;;;16.40;57.30;;;;;;4998105;28;86466;-43
2023/10/24 06:36:34;;;;;;;;;;;16.40;57.40;;;;;;4995912;28;88588;-44
2023/10/24 06:39:01;;;;;;;;;;;16.40;57.30;;;;;;5000264;28;88604;-44
2023/10/24 06:41:26;;;;;;;;;;;16.40;57.40;;;;;;4992698;28;89523;-44
2023/10/24 06:43:52;;;;;;;;;;;16.40;57.30;;;;;;4994204;28;88026;-44
2023/10/24 06:46:17;;;;;;;;;;;16.40;57.40;;;;;;4999213;28;87162;-43
2023/10/24 06:48:43;;;;;;;;;;;16.40;57.30;;;;;;4998669;28;87233;-43
2023/10/24 06:51:08;;;;;;;;;;;16.40;57.40;;;;;;4996590;28;89236;-43
2023/10/24 06:53:34;;;;;;;;;;;16.40;57.40;;;;;;4996907;28;87131;-44
2023/10/24 06:56:00;;;;;;;;;;;16.40;57.40;;;;;;4997094;28;87038;-43
2023/10/24 06:58:25;;;;;;;;;;;16.40;57.40;;;;;;4996557;28;87327;-43
2023/10/24 07:00:51;;;;;;;;;;;16.40;57.40;;;;;;5000860;28;87983;-43
2023/10/24 07:03:16;;;;;;;;;;;16.40;57.40;;;;;;4996138;28;88011;-43
2023/10/24 07:05:48;;;;;;;;;;;16.40;57.40;;;;;;4996395;28;88054;-43
2023/10/24 07:08:13;;;;;;;;;;;16.30;57.30;;;;;;4997850;28;88603;-44
2023/10/24 07:10:39;;;;;;;;;;;16.40;57.50;;;;;;4989729;28;88260;-43
2023/10/24 07:13:04;;;;;;;;;;;16.40;57.50;;;;;;4992976;28;87193;-43
2023/10/24 07:15:29;;;;;;;;;;;16.30;57.50;;;;;;4993422;28;87969;-46
2023/10/24 07:17:55;;;;;;;;;;;16.30;57.50;;;;;;4993686;28;88968;-45
2023/10/24 07:20:20;;;;;;;;;;;16.30;57.60;;;;;;4990495;28;87132;-43
2023/10/24 07:22:46;;;;;;;;;;;16.30;57.60;;;;;;4997186;28;87418;-43
2023/10/24 07:25:12;;;;;;;;;;;16.30;57.70;;;;;;4994067;28;87134;-43
2023/10/24 07:27:37;;;;;;;;;;;16.30;57.70;;;;;;4991402;28;88956;-44
2023/10/24 07:30:03;;;;;;;;;;;16.30;57.70;;;;;;4987354;28;88841;-43
2023/10/24 07:32:28;;;;;;;;;;;16.30;57.60;;;;;;4992338;28;87273;-46
2023/10/24 07:34:56;;;;;;;;;;;16.30;57.70;;;;;;4994014;28;87590;-44
2023/10/24 07:37:21;;;;;;;;;;;16.30;57.70;;;;;;4989619;28;88617;-43
2023/10/24 07:39:47;;;;;;;;;;;16.30;57.70;;;;;;4991486;28;87172;-46
2023/10/24 07:42:12;;;;;;;;;;;16.30;57.70;;;;;;4996195;28;88422;-44
2023/10/24 07:44:38;;;;;;;;;;;16.30;57.70;;;;;;4988527;28;87177;-44
2023/10/24 07:47:03;;;;;;;;;;;16.30;57.80;;;;;;4988710;28;87481;-44
2023/10/24 07:49:30;;;;;;;;;;;16.30;57.80;;;;;;4991718;28;87833;-43
2023/10/24 07:51:55;;;;;;;;;;;16.30;57.70;;;;;;4991929;28;87447;-44
2023/10/24 07:54:21;;;;;;;;;;;16.40;57.80;;;;;;4991429;28;89095;-44
2023/10/24 07:56:46;;;;;;;;;;;16.40;57.70;;;;;;4991058;28;87693;-45
2023/10/24 07:59:12;;;;;;;;;;;16.30;57.70;;;;;;4993880;28;87196;-43
2023/10/24 08:01:37;;;;;;;;;;;16.30;57.70;;;;;;4994784;28;87380;-45
2023/10/24 08:04:03;;;;;;;;;;;16.40;57.80;;;;;;4994883;28;88149;-43
2023/10/24 08:06:28;;;;;;;;;;;16.40;57.80;;;;;;4993117;28;87587;-44
2023/10/24 08:08:54;;;;;;;;;;;16.30;57.70;;;;;;4991538;28;89222;-43
2023/10/24 08:11:19;;;;;;;;;;;16.30;57.90;;;;;;4992199;28;86940;-43
2023/10/24 08:13:45;;;;;;;;;;;16.30;57.80;;;;;;4992191;28;87696;-43
2023/10/24 08:16:10;;;;;;;;;;;16.30;57.90;;;;;;4989563;28;87987;-43
2023/10/24 08:18:37;;;;;;;;;;;16.30;57.90;;;;;;4992476;28;88001;-43
2023/10/24 08:21:03;;;;;;;;;;;16.30;58.00;;;;;;4998303;28;88314;-46
2023/10/24 08:23:28;;;;;;;;;;;16.30;58.00;;;;;;4987873;28;87999;-43
2023/10/24 08:25:54;;;;;;;;;;;16.30;58.20;;;;;;4993479;28;87224;-44
2023/10/24 08:28:20;;;;;;;;;;;16.30;58.20;;;;;;4992126;28;88038;-43
2023/10/24 08:30:45;;;;;;;;;;;16.30;58.10;;;;;;4991678;28;88813;-43
2023/10/24 08:33:10;;;;;;;;;;;16.20;58.10;;;;;;4993250;28;87514;-45
2023/10/24 08:35:36;;;;;;;;;;;16.30;58.30;;;;;;4993740;28;87838;-43
2023/10/24 08:38:03;;;;;;;;;;;16.20;58.30;;;;;;4994271;28;87112;-44
2023/10/24 08:40:29;;;;;;;;;;;16.20;58.30;;;;;;4989648;28;87387;-43
2023/10/24 08:42:55;;;;;;;;;;;16.30;58.40;;;;;;4988197;28;88235;-43
2023/10/24 08:45:21;;;;;;;;;;;16.20;58.40;;;;;;4994094;28;87124;-44
2023/10/24 08:47:50;;;;;;;;;;;16.30;58.30;;;;;;4994148;28;87597;-43
2023/10/24 08:50:15;;;;;;;;;;;16.20;58.40;;;;;;4990367;28;88769;-44
2023/10/24 08:52:42;;;;;;;;;;;16.30;58.40;;;;;;4987970;28;88816;-43
2023/10/24 08:55:08;;;;;;;;;;;16.30;58.50;;;;;;4994116;28;89152;-43
2023/10/24 08:57:37;;;;;;;;;;;16.30;58.50;;;;;;4991210;28;87028;-43
2023/10/24 09:00:02;;;;;;;;;;;16.20;58.60;;;;;;4988547;28;87350;-44
2023/10/24 09:02:28;;;;;;;;;;;16.30;58.50;;;;;;4990500;28;87677;-43
2023/10/24 09:04:53;;;;;;;;;;;16.20;58.50;;;;;;4992608;28;87164;-43
2023/10/24 09:07:19;;;;;;;;;;;16.30;58.30;;;;;;4990872;28;89142;-43
2023/10/24 09:09:44;;;;;;;;;;;16.30;58.40;;;;;;4996284;28;88099;-44
2023/10/24 09:12:14;;;;;;;;;;;16.30;58.40;;;;;;4990960;28;87454;-43
2023/10/24 09:14:44;;;;;;;;;;;16.30;58.50;;;;;;4991191;28;87868;-43
2023/10/24 09:17:10;;;;;;;;;;;16.30;58.50;;;;;;4989717;28;87158;-45
2023/10/24 09:19:39;;;;;;;;;;;16.30;58.50;;;;;;4984913;28;87100;-44
2023/10/24 09:22:05;;;;;;;;;;;16.30;58.60;;;;;;4993625;28;89512;-44
2023/10/24 09:24:31;;;;;;;;;;;16.30;58.60;;;;;;4990217;28;88133;-43
2023/10/24 09:26:57;;;;;;;;;;;16.30;58.70;;;;;;4987800;28;88309;-44
2023/10/24 09:29:24;;;;;;;;;;;16.30;59.30;;;;;;4987445;28;88269;-45
2023/10/24 09:31:50;;;;;;;;;;;16.30;58.70;;;;;;4994298;28;88565;-43
2023/10/24 09:34:16;;;;;;;;;;;16.30;58.60;;;;;;4991171;28;88139;-44
2023/10/24 09:36:42;;;;;;;;;;;16.30;58.90;;;;;;4993594;28;87760;-44
2023/10/24 09:39:14;;;;;;;;;;;16.30;58.70;;;;;;4994167;28;87485;-44
2023/10/24 09:41:40;;;;;;;;;;;16.30;58.60;;;;;;4991522;28;88145;-43
2023/10/24 09:44:06;;;;;;;;;;;16.30;58.60;;;;;;4987232;28;88950;-44
2023/10/24 09:46:33;;;;;;;;;;;16.30;58.70;;;;;;4992946;28;90506;-45
2023/10/24 09:48:59;;;;;;;;;;;16.30;58.70;;;;;;4990269;28;86353;-43
2023/10/24 09:51:24;;;;;;;;;;;16.30;58.70;;;;;;4997530;28;87603;-43
2023/10/24 09:53:50;;;;;;;;;;;16.30;58.70;;;;;;4987522;28;88426;-43
2023/10/24 09:56:16;;;;;;;;;;;16.30;58.70;;;;;;4984297;28;88568;-43
2023/10/24 09:58:45;;;;;;;;;;;16.40;58.90;;;;;;4992147;28;88536;-45
2023/10/24 10:01:11;;;;;;;;;;;16.40;58.90;;;;;;4991471;28;88834;-43
2023/10/24 10:03:36;;;;;;;;;;;16.40;58.90;;;;;;4988551;28;87237;-44
2023/10/24 10:06:04;;;;;;;;;;;16.30;59.00;;;;;;4987560;28;87698;-44
2023/10/24 10:08:31;;;;;;;;;;;16.30;59.00;;;;;;4992837;28;88729;-45
2023/10/24 10:10:57;;;;;;;;;;;16.40;59.20;;;;;;4988449;28;87413;-44
2023/10/24 10:13:27;;;;;;;;;;;16.40;59.20;;;;;;4993347;28;87500;-43
2023/10/24 10:15:58;;;;;;;;;;;16.40;59.20;;;;;;4989307;28;87150;-44
2023/10/24 10:18:42;;;;;;;;;;;16.40;59.20;;;;;;4993056;28;87436;-44
2023/10/24 10:21:16;;;;;;;;;;;16.40;59.20;;;;;;4990620;28;91142;-43
2023/10/24 10:24:00;;;;;;;;;;;16.40;59.30;;;;;;4988313;28;87790;-44
2023/10/24 10:26:57;;;;;;;;;;;16.40;59.30;;;;;;4990745;28;87486;-44
2023/10/24 10:29:41;;;;;;;;;;;16.40;59.40;;;;;;4982942;28;89100;-44
2023/10/24 10:32:21;;;;;;;;;;;16.40;59.50;;;;;;4982204;28;87406;-43
2023/10/24 10:34:49;;;;;;;;;;;16.40;59.40;;;;;;4993294;28;87516;-44
2023/10/24 10:37:16;;;;;;;;;;;16.40;59.40;;;;;;4993412;28;88194;-43
2023/10/24 10:39:41;;;;;;;;;;;16.50;59.40;;;;;;4983948;28;87355;-46
2023/10/24 10:42:27;;;;;;;;;;;16.40;59.40;;;;;;4988247;28;87697;-43
2023/10/24 10:44:52;;;;;;;;;;;16.40;59.40;;;;;;4990548;28;87972;-44
2023/10/24 10:47:21;;;;;;;;;;;16.50;59.50;;;;;;4993970;28;88585;-44
2023/10/24 10:49:48;;;;;;;;;;;16.50;59.50;;;;;;4992941;28;88070;-43
2023/10/24 10:52:32;;;;;;;;;;;16.50;59.40;;;;;;4992277;28;87755;-43
2023/10/24 10:54:58;;;;;;;;;;;16.50;59.50;;;;;;4994972;28;86974;-43
2023/10/24 10:57:28;;;;;;;;;;;16.50;59.60;;;;;;4987642;28;88828;-44
2023/10/24 10:59:58;;;;;;;;;;;16.50;59.50;;;;;;4998536;28;87177;-43
2023/10/24 11:02:50;;;;;;;;;;;16.50;59.50;;;;;;4991956;28;89294;-44
2023/10/24 11:05:34;;;;;;;;;;;16.50;59.60;;;;;;4996204;28;86753;-43
2023/10/24 11:08:00;;;;;;;;;;;16.60;59.50;;;;;;4993252;28;87173;-45
2023/10/24 11:10:46;;;;;;;;;;;16.60;59.50;;;;;;4991005;28;88737;-43
2023/10/24 11:13:29;;;;;;;;;;;16.60;59.50;;;;;;4992397;28;88125;-44
2023/10/24 11:15:55;;;;;;;;;;;16.60;59.60;;;;;;4990043;28;88365;-44
2023/10/24 11:18:20;;;;;;;;;;;16.60;59.50;;;;;;4994459;28;88397;-43
2023/10/24 11:20:46;;;;;;;;;;;16.60;59.40;;;;;;4992581;28;87093;-44
2023/10/24 11:23:12;;;;;;;;;;;16.60;59.60;;;;;;4999288;28;88124;-44
2023/10/24 11:25:37;;;;;;;;;;;16.60;59.50;;;;;;4996461;28;87474;-44
2023/10/24 11:28:07;;;;;;;;;;;16.60;59.60;;;;;;4986250;28;87696;-44
2023/10/24 11:30:33;;;;;;;;;;;16.60;59.50;;;;;;4995969;28;86564;-44
2023/10/24 11:32:58;;;;;;;;;;;16.60;59.50;;;;;;4992972;28;87174;-43
2023/10/24 11:35:24;;;;;;;;;;;16.60;59.60;;;;;;4994552;28;87506;-44
2023/10/24 11:37:49;;;;;;;;;;;16.70;59.70;;;;;;4995171;28;90973;-44
2023/10/24 11:40:15;;;;;;;;;;;16.70;59.70;;;;;;4991995;28;87116;-45
2023/10/24 11:42:40;;;;;;;;;;;16.70;59.70;;;;;;4993262;28;88891;-44
2023/10/24 11:45:06;;;;;;;;;;;16.70;59.70;;;;;;4995379;28;88069;-44
2023/10/24 11:47:31;;;;;;;;;;;16.70;59.70;;;;;;4989710;28;87173;-46
2023/10/24 11:49:57;;;;;;;;;;;16.70;59.70;;;;;;4993967;28;88865;-43
2023/10/24 11:52:23;;;;;;;;;;;16.70;59.80;;;;;;4993554;28;87154;-43
2023/10/24 11:54:52;;;;;;;;;;;16.70;59.60;;;;;;4992151;28;87498;-45
2023/10/24 11:57:18;;;;;;;;;;;16.80;59.80;;;;;;4988434;28;87273;-44
2023/10/24 11:59:45;;;;;;;;;;;16.70;59.60;;;;;;4994208;28;87242;-45
2023/10/24 12:02:11;;;;;;;;;;;16.80;59.70;;;;;;4994258;28;87985;-44
2023/10/24 12:04:36;;;;;;;;;;;16.80;59.80;;;;;;4995012;28;88683;-44
2023/10/24 12:07:03;;;;;;;;;;;16.80;59.80;;;;;;4990109;28;87112;-43
2023/10/24 12:09:31;;;;;;;;;;;16.80;59.70;;;;;;4994256;28;87642;-44
2023/10/24 12:11:56;;;;;;;;;;;16.80;59.70;;;;;;4992886;28;87082;-44
2023/10/24 12:14:22;;;;;;;;;;;16.80;59.70;;;;;;4992057;28;87448;-44
2023/10/24 12:16:47;;;;;;;;;;;16.80;59.80;;;;;;4991470;28;88174;-43
2023/10/24 12:19:13;;;;;;;;;;;16.80;59.80;;;;;;4993883;28;86294;-46
2023/10/24 12:21:38;;;;;;;;;;;16.90;59.80;;;;;;4992521;28;87584;-44
2023/10/24 12:24:04;;;;;;;;;;;16.90;60.40;;;;;;4985552;28;88055;-45
2023/10/24 12:26:29;;;;;;;;;;;16.90;59.80;;;;;;4993364;28;88166;-43
2023/10/24 12:28:55;;;;;;;;;;;16.90;59.80;;;;;;4992305;28;89425;-44
2023/10/24 12:31:20;;;;;;;;;;;16.90;59.80;;;;;;4985284;28;87283;-43
2023/10/24 12:33:46;;;;;;;;;;;16.90;59.80;;;;;;4986976;28;88223;-44
2023/10/24 12:36:13;;;;;;;;;;;16.90;59.80;;;;;;4991217;28;88218;-44
2023/10/24 12:38:39;;;;;;;;;;;16.90;59.80;;;;;;4995113;28;88124;-45
2023/10/24 12:41:04;;;;;;;;;;;17.00;59.80;;;;;;4988323;28;88777;-45
2023/10/24 12:43:31;;;;;;;;;;;16.90;59.80;;;;;;4991595;28;87476;-44
2023/10/24 12:45:56;;;;;;;;;;;17.00;59.80;;;;;;4993286;28;87131;-45
2023/10/24 12:48:22;;;;;;;;;;;17.00;59.90;;;;;;4999883;28;88667;-44
2023/10/24 12:50:48;;;;;;;;;;;17.00;59.80;;;;;;4992584;28;88034;-45
2023/10/24 12:53:14;;;;;;;;;;;17.00;59.80;;;;;;4988339;28;89890;-44
2023/10/24 12:55:40;;;;;;;;;;;17.00;59.80;;;;;;4994311;28;88357;-44
2023/10/24 12:58:05;;;;;;;;;;;17.00;59.80;;;;;;4991070;28;87145;-46
2023/10/24 13:00:31;;;;;;;;;;;17.00;59.80;;;;;;4988980;28;87772;-44
2023/10/24 13:02:57;;;;;;;;;;;17.00;59.80;;;;;;4990140;28;89529;-44
2023/10/24 13:05:22;;;;;;;;;;;17.00;59.80;;;;;;4994014;28;87113;-44
2023/10/24 13:07:48;;;;;;;;;;;17.00;59.80;;;;;;4989639;28;87421;-44
2023/10/24 13:10:14;;;;;;;;;;;17.10;59.90;;;;;;4991383;28;87956;-44
2023/10/24 13:12:40;;;;;;;;;;;17.10;59.90;;;;;;4994275;28;88726;-44
2023/10/24 13:15:06;;;;;;;;;;;17.10;60.40;;;;;;4989424;28;89230;-46
2023/10/24 13:17:31;;;;;;;;;;;17.10;59.90;;;;;;4991171;28;88700;-43
2023/10/24 13:19:57;;;;;;;;;;;17.10;59.80;;;;;;4987752;28;87502;-44
2023/10/24 13:22:22;;;;;;;;;;;17.10;59.80;;;;;;4992106;28;88377;-44
2023/10/24 13:24:49;;;;;;;;;;;17.10;59.80;;;;;;4996226;28;88046;-44
2023/10/24 13:27:14;;;;;;;;;;;17.10;59.80;;;;;;4989182;28;88852;-44
2023/10/24 13:29:40;;;;;;;;;;;17.10;59.80;;;;;;4989653;28;87888;-45
2023/10/24 13:32:05;;;;;;;;;;;17.10;59.80;;;;;;4997243;28;87122;-44
2023/10/24 13:34:31;;;;;;;;;;;17.20;59.80;;;;;;4992190;28;87173;-44
2023/10/24 13:36:56;;;;;;;;;;;17.20;59.80;;;;;;4992543;28;87663;-45
2023/10/24 13:39:22;;;;;;;;;;;17.20;59.80;;;;;;4990184;28;87962;-45
2023/10/24 13:41:48;;;;;;;;;;;17.20;59.70;;;;;;4992060;28;88080;-44
2023/10/24 13:44:13;;;;;;;;;;;17.20;59.70;;;;;;4988733;28;87302;-44
2023/10/24 13:46:39;;;;;;;;;;;17.20;59.70;;;;;;4988972;28;87341;-46
2023/10/24 13:49:04;;;;;;;;;;;17.20;59.70;;;;;;4993663;28;88968;-44
2023/10/24 13:51:30;;;;;;;;;;;17.30;59.70;;;;;;4991498;28;87989;-44
2023/10/24 13:53:56;;;;;;;;;;;17.30;59.80;;;;;;4995410;28;88704;-45
2023/10/24 13:56:21;;;;;;;;;;;17.30;59.70;;;;;;4987005;28;86515;-44
2023/10/24 13:58:47;;;;;;;;;;;17.30;59.70;;;;;;4989675;28;88033;-45
2023/10/24 14:01:12;;;;;;;;;;;17.30;59.70;;;;;;4990128;28;87532;-44
2023/10/24 14:03:38;;;;;;;;;;;17.30;59.70;;;;;;4987489;28;88137;-44
2023/10/24 14:06:03;;;;;;;;;;;17.30;59.70;;;;;;4987472;28;88405;-44
2023/10/24 14:08:29;;;;;;;;;;;17.30;59.70;;;;;;4989575;28;87867;-45
2023/10/24 14:10:54;;;;;;;;;;;17.30;59.70;;;;;;4991532;28;88253;-43
2023/10/24 14:13:20;;;;;;;;;;;17.30;59.70;;;;;;4987103;28;88248;-44